Time;durP1;ratioP1;P1;durP2;ratioP2;P2;SDS_P1;SDS_P2;PMS_P1;PMS_P2;Temp;Humidity;BMP_temperature;BMP_pressure;BME280_temperature;BME280_humidity;BME280_pressure;Samples;Min_cycle;Max_cycle;Signal;HPM_P1;HPM_P2
2024/01/20 00:01:45;;;;;;;19.13;15.90;;;;;;;1.57;84.86;101405.41;5064543;28;20233;-81
2024/01/20 00:04:11;;;;;;;20.07;16.33;;;;;;;1.46;84.57;101412.75;5064326;28;20206;-82
2024/01/20 00:06:37;;;;;;;22.73;20.42;;;;;;;1.64;84.42;101411.63;5062463;28;20462;-80
2024/01/20 00:09:04;;;;;;;22.73;16.60;;;;;;;1.49;85.54;101392.28;5062870;28;20279;-80
2024/01/20 00:11:30;;;;;;;18.63;16.37;;;;;;;1.50;84.30;101408.59;5063862;28;20277;-81
2024/01/20 00:13:56;;;;;;;21.50;16.27;;;;;;;1.61;84.50;101411.53;5064805;28;20264;-81
2024/01/20 00:16:23;;;;;;;16.60;14.57;;;;;;;1.18;84.72;101428.94;5065235;28;20228;-83
2024/01/20 00:18:50;;;;;;;22.10;16.80;;;;;;;1.43;85.89;101396.34;5063132;28;20255;-79
2024/01/20 00:21:17;;;;;;;17.33;15.53;;;;;;;1.60;85.04;101402.94;5064386;28;20217;-80
2024/01/20 00:23:43;;;;;;;19.33;16.27;;;;;;;1.59;84.07;101432.94;5064602;28;20201;-81
2024/01/20 00:26:10;;;;;;;17.97;16.07;;;;;;;1.53;84.78;101434.44;5064517;28;20201;-81
2024/01/20 00:28:36;;;;;;;22.10;15.77;;;;;;;1.60;85.08;101418.38;5064245;28;20227;-80
2024/01/20 00:31:02;;;;;;;18.67;16.67;;;;;;;1.49;84.99;101430.88;5064762;28;20208;-81
2024/01/20 00:33:29;;;;;;;22.77;17.00;;;;;;;1.44;85.60;101429.84;5063942;28;20268;-81
2024/01/20 00:35:57;;;;;;;20.03;16.07;;;;;;;1.61;85.47;101422.72;5064256;28;20208;-81
2024/01/20 00:38:25;;;;;;;21.20;16.27;;;;;;;1.71;84.49;101422.19;5064818;28;20257;-79
2024/01/20 00:40:51;;;;;;;18.83;15.20;;;;;;;1.49;84.51;101437.75;5064380;28;20210;-81
2024/01/20 00:43:18;;;;;;;21.10;16.00;;;;;;;1.63;84.68;101436.50;5063976;28;20690;-81
2024/01/20 00:45:46;;;;;;;18.40;15.47;;;;;;;1.59;85.13;101426.94;5065213;28;20205;-81
2024/01/20 00:48:12;;;;;;;17.80;15.97;;;;;;;1.77;84.28;101437.81;5064474;28;20287;-80
2024/01/20 00:50:38;;;;;;;19.87;15.23;;;;;;;1.91;83.71;101443.44;5063755;28;20259;-81
2024/01/20 00:53:06;;;;;;;20.63;15.33;;;;;;;1.85;84.08;101447.50;5064541;28;20225;-81
2024/01/20 00:55:32;;;;;;;17.90;15.57;;;;;;;1.68;83.76;101462.38;5064022;28;20206;-81
2024/01/20 00:57:59;;;;;;;24.63;16.53;;;;;;;1.85;83.77;101455.22;5063885;28;20209;-80
2024/01/20 01:00:25;;;;;;;16.90;15.20;;;;;;;1.98;83.59;101475.38;5063923;28;20210;-82
2024/01/20 01:02:51;;;;;;;19.80;16.13;;;;;;;1.94;83.15;101487.31;5064250;28;20233;-81
2024/01/20 01:05:18;;;;;;;22.97;16.20;;;;;;;2.06;83.28;101501.38;5064308;28;20308;-81
2024/01/20 01:07:44;;;;;;;16.80;15.30;;;;;;;2.05;82.88;101508.25;5064022;28;20231;-80
2024/01/20 01:10:12;;;;;;;18.80;16.20;;;;;;;1.76;83.36;101505.59;5063133;28;20212;-81
2024/01/20 01:12:38;;;;;;;17.00;15.30;;;;;;;1.86;83.72;101487.84;5064140;28;20252;-80
2024/01/20 01:15:05;;;;;;;23.70;17.17;;;;;;;1.70;84.19;101491.63;5064624;28;20232;-81
2024/01/20 01:17:32;;;;;;;17.87;16.07;;;;;;;1.74;84.27;101458.31;5062709;28;20209;-80
2024/01/20 01:19:59;;;;;;;21.93;16.73;;;;;;;1.67;84.83;101473.50;5065801;28;20208;-81
2024/01/20 01:22:25;;;;;;;17.27;15.47;;;;;;;1.46;84.91;101463.34;5067377;28;20230;-80
2024/01/20 01:24:52;;;;;;;19.73;17.63;;;;;;;1.56;85.79;101453.41;5081228;28;20291;-80
2024/01/20 01:27:19;;;;;;;19.27;17.07;;;;;;;1.70;84.68;101453.88;5088103;28;20201;-80
2024/01/20 01:29:46;;;;;;;19.57;17.57;;;;;;;1.67;85.10;101460.66;5087238;28;20228;-80
2024/01/20 01:32:12;;;;;;;19.87;16.57;;;;;;;1.67;85.21;101445.19;5087300;28;20296;-81
2024/01/20 01:34:39;;;;;;;18.97;16.90;;;;;;;1.67;85.40;101464.09;5087916;28;20210;-79
2024/01/20 01:37:05;;;;;;;20.23;16.73;;;;;;;1.68;84.66;101464.94;5087657;28;20221;-81
2024/01/20 01:39:31;;;;;;;20.93;17.20;;;;;;;1.64;84.96;101474.25;5086964;28;20200;-81
2024/01/20 01:41:58;;;;;;;19.70;17.03;;;;;;;1.78;84.83;101462.75;5087261;28;20652;-81
2024/01/20 01:44:25;;;;;;;22.97;16.17;;;;;;;1.76;84.38;101469.56;5087967;28;20745;-81
2024/01/20 01:46:52;;;;;;;19.37;16.70;;;;;;;1.73;84.34;101476.28;5087565;28;20319;-81
2024/01/20 01:49:19;;;;;;;19.03;15.37;;;;;;;1.76;84.27;101486.66;5087698;28;20222;-81
2024/01/20 01:51:45;;;;;;;21.03;16.63;;;;;;;1.41;85.06;101495.75;5080438;28;20226;-81
2024/01/20 01:54:12;;;;;;;18.47;16.53;;;;;;;1.48;84.59;101487.44;5067374;28;20203;-80
2024/01/20 01:56:40;;;;;;;18.10;16.40;;;;;;;1.57;85.51;101480.03;5066811;28;20202;-82
2024/01/20 01:59:07;;;;;;;22.47;17.37;;;;;;;1.58;84.43;101494.63;5067165;28;20201;-81
2024/01/20 02:01:35;;;;;;;19.40;17.30;;;;;;;1.49;85.17;101492.63;5067510;28;20213;-80
2024/01/20 02:04:01;;;;;;;23.60;16.37;;;;;;;1.59;85.16;101479.25;5067405;28;20228;-80
2024/01/20 02:06:27;;;;;;;21.83;16.73;;;;;;;1.33;86.27;101488.66;5066659;28;20642;-81
2024/01/20 02:08:54;;;;;;;19.20;17.07;;;;;;;1.51;85.98;101465.25;5073824;28;20255;-81
2024/01/20 02:11:20;;;;;;;24.53;17.70;;;;;;;1.30;86.07;101470.50;5086724;28;20231;-80
2024/01/20 02:13:47;;;;;;;25.07;18.90;;;;;;;1.36;86.10;101454.44;5087164;28;20803;-81
2024/01/20 02:16:13;;;;;;;23.57;18.83;;;;;;;1.43;86.54;101453.84;5086527;28;20200;-80
2024/01/20 02:18:41;;;;;;;25.07;19.33;;;;;;;1.35;86.56;101447.56;5087028;28;20205;-80
2024/01/20 02:21:07;;;;;;;25.57;17.73;;;;;;;1.42;85.95;101451.19;5085427;28;20209;-81
2024/01/20 02:23:39;;;;;;;22.20;19.70;;;;;;;1.10;87.52;101438.94;5065692;28;20226;-80
2024/01/20 02:26:05;;;;;;;24.83;20.00;;;;;;;1.38;87.02;101421.91;5067484;28;20232;-80
2024/01/20 02:28:32;;;;;;;19.93;17.87;;;;;;;1.41;86.43;101439.16;5066019;28;20229;-79
2024/01/20 02:30:58;;;;;;;29.37;18.67;;;;;;;1.34;86.30;101454.38;5065769;28;20206;-80
2024/01/20 02:33:24;;;;;;;26.20;19.80;;;;;;;1.44;86.67;101446.97;5066785;28;20288;-80
2024/01/20 02:35:50;;;;;;;23.70;17.63;;;;;;;1.39;86.66;101451.97;5066601;28;20236;-81
2024/01/20 02:38:17;;;;;;;31.13;18.70;;;;;;;1.24;86.49;101472.88;5066805;28;20205;-82
2024/01/20 02:40:44;;;;;;;32.77;20.37;;;;;;;1.14;86.92;101437.38;5065426;28;20271;-80
2024/01/20 02:43:11;;;;;;;33.10;19.70;;;;;;;1.24;88.04;101418.00;5066683;28;20264;-81
2024/01/20 02:45:37;;;;;;;24.50;19.50;;;;;;;1.34;87.93;101409.78;5066037;28;20206;-80
2024/01/20 02:48:04;;;;;;;26.80;20.10;;;;;;;1.37;88.00;101397.03;5066115;28;20209;-80
2024/01/20 02:50:31;;;;;;;28.93;19.93;;;;;;;1.36;87.92;101405.56;5066714;28;20248;-80
2024/01/20 02:52:57;;;;;;;23.63;18.97;;;;;;;1.11;87.89;101412.44;5066423;28;20280;-81
2024/01/20 02:55:24;;;;;;;25.43;19.87;;;;;;;1.38;87.33;101404.78;5067398;28;20211;-81
2024/01/20 02:57:51;;;;;;;23.57;18.27;;;;;;;1.26;87.88;101419.78;5067115;28;20210;-81
2024/01/20 03:00:18;;;;;;;28.37;20.50;;;;;;;1.14;88.55;101409.94;5066423;28;20198;-80
2024/01/20 03:02:44;;;;;;;29.77;19.07;;;;;;;1.41;88.06;101397.97;5066526;28;20223;-82
2024/01/20 03:05:11;;;;;;;31.13;19.60;;;;;;;1.28;88.69;101405.28;5066482;28;20217;-79
2024/01/20 03:07:37;;;;;;;24.40;18.83;;;;;;;1.37;88.14;101408.19;5066060;28;20236;-81
2024/01/20 03:10:04;;;;;;;23.37;18.33;;;;;;;1.39;87.56;101410.81;5065339;28;20302;-81
2024/01/20 03:12:30;;;;;;;26.23;19.83;;;;;;;1.35;87.89;101414.09;5066128;28;20233;-80
2024/01/20 03:14:58;;;;;;;26.70;18.30;;;;;;;1.19;88.98;101407.56;5066349;28;20256;-80
2024/01/20 03:17:24;;;;;;;30.90;19.67;;;;;;;1.42;89.20;101381.75;5066163;28;20209;-81
2024/01/20 03:19:51;;;;;;;24.60;19.27;;;;;;;1.26;89.21;101386.38;5065523;28;20206;-80
2024/01/20 03:22:17;;;;;;;22.70;19.53;;;;;;;1.62;87.77;101379.81;5066237;28;20723;-79
2024/01/20 03:24:43;;;;;;;23.53;18.53;;;;;;;1.58;87.84;101392.56;5076209;28;20246;-82
2024/01/20 03:27:10;;;;;;;21.30;18.10;;;;;;;1.35;88.17;101408.97;5078501;28;20216;-83
2024/01/20 03:29:36;;;;;;;29.83;19.40;;;;;;;1.50;88.68;101401.75;5078100;28;20283;-83
2024/01/20 03:32:04;;;;;;;24.50;18.23;;;;;;;1.68;87.86;101426.34;5078161;28;20209;-82
2024/01/20 03:34:30;;;;;;;22.63;18.27;;;;;;;1.64;87.44;101432.22;5078159;28;20222;-83
2024/01/20 03:36:57;;;;;;;22.20;17.90;;;;;;;1.87;86.75;101443.28;5077989;28;20218;-82
2024/01/20 03:39:23;;;;;;;22.70;18.27;;;;;;;1.72;86.33;101470.25;5077852;28;20206;-80
2024/01/20 03:41:49;;;;;;;21.73;18.07;;;;;;;1.77;86.14;101478.13;5077329;28;20209;-83
2024/01/20 03:44:16;;;;;;;24.27;18.63;;;;;;;1.81;85.79;101492.00;5078228;28;20212;-82
2024/01/20 03:46:42;;;;;;;22.13;18.80;;;;;;;1.58;86.08;101516.09;5072040;28;20197;-82
2024/01/20 03:49:09;;;;;;;23.77;17.40;;;;;;;1.76;85.95;101509.84;5069451;28;20230;-82
2024/01/20 03:51:36;;;;;;;21.90;18.47;;;;;;;1.77;86.26;101517.63;5069871;28;20237;-79
2024/01/20 03:54:04;;;;;;;22.53;18.17;;;;;;;1.72;86.57;101513.13;5069711;28;20201;-82
2024/01/20 03:56:30;;;;;;;18.20;16.23;;;;;;;1.69;86.20;101513.03;5068860;28;20581;-82
2024/01/20 03:58:56;;;;;;;20.50;16.07;;;;;;;1.75;85.54;101534.72;5067457;28;20198;-82
2024/01/20 04:01:23;;;;;;;20.57;16.83;;;;;;;1.93;85.30;101536.16;5068751;28;20671;-81
2024/01/20 04:03:49;;;;;;;19.87;16.10;;;;;;;1.65;85.97;101524.06;5068692;28;20208;-82
2024/01/20 04:06:17;;;;;;;18.77;16.90;;;;;;;1.68;85.96;101532.72;5067914;28;20265;-82
2024/01/20 04:08:43;;;;;;;22.60;16.90;;;;;;;1.83;85.66;101524.69;5067350;28;20681;-82
2024/01/20 04:11:09;;;;;;;21.83;17.13;;;;;;;1.72;85.36;101533.72;5068673;28;20212;-82
2024/01/20 04:13:36;;;;;;;28.00;17.27;;;;;;;1.77;86.01;101539.91;5068162;28;20224;-82
2024/01/20 04:16:02;;;;;;;18.87;15.23;;;;;;;1.66;85.98;101548.94;5068096;28;20207;-82
2024/01/20 04:18:28;;;;;;;22.40;16.60;;;;;;;1.48;85.50;101562.03;5068026;28;20209;-81
2024/01/20 04:20:55;;;;;;;18.53;16.53;;;;;;;1.51;87.16;101551.88;5068027;28;20285;-82
2024/01/20 04:23:22;;;;;;;19.93;15.73;;;;;;;1.68;86.04;101526.72;5063286;28;20232;-82
2024/01/20 04:25:49;;;;;;;17.33;15.53;;;;;;;1.70;85.34;101543.94;5087188;28;20658;-82
2024/01/20 04:28:15;;;;;;;16.50;14.73;;;;;;;1.33;86.06;101573.53;5087136;28;20236;-82
2024/01/20 04:30:42;;;;;;;19.30;15.50;;;;;;;1.46;86.60;101555.97;5085858;28;20228;-81
2024/01/20 04:33:08;;;;;;;18.73;14.93;;;;;;;1.66;86.32;101548.94;5086936;28;20283;-82
2024/01/20 04:35:34;;;;;;;17.90;14.63;;;;;;;1.83;85.56;101562.44;5087310;28;20620;-82
2024/01/20 04:38:01;;;;;;;16.27;14.37;;;;;;;1.52;84.51;101594.78;5086763;28;20235;-82
2024/01/20 04:40:28;;;;;;;18.03;13.00;;;;;;;1.49;85.29;101574.97;5087045;28;20202;-82
2024/01/20 04:42:55;;;;;;;15.53;14.13;;;;;;;1.43;85.24;101584.13;5086493;28;20234;-82
2024/01/20 04:45:21;;;;;;;14.90;12.20;;;;;;;1.57;85.24;101576.13;5086845;28;20205;-82
2024/01/20 04:47:47;;;;;;;14.70;13.20;;;;;;;1.69;85.17;101588.53;5086348;28;20206;-82
2024/01/20 04:50:14;;;;;;;15.13;13.53;;;;;;;1.49;85.08;101598.13;5086719;28;20228;-82
2024/01/20 04:52:40;;;;;;;14.73;13.30;;;;;;;1.56;84.34;101594.94;5072658;28;20660;-82
2024/01/20 04:55:07;;;;;;;17.03;12.90;;;;;;;1.67;84.40;101609.91;5068527;28;20201;-81
2024/01/20 04:57:35;;;;;;;19.23;12.73;;;;;;;1.71;83.98;101624.63;5070148;28;20672;-82
2024/01/20 05:00:01;;;;;;;14.17;12.20;;;;;;;1.87;83.27;101644.09;5070647;28;20233;-82
2024/01/20 05:02:27;;;;;;;15.73;12.67;;;;;;;1.75;82.90;101658.25;5069737;28;21161;-82
2024/01/20 05:04:54;;;;;;;12.27;10.17;;;;;;;1.83;82.23;101657.69;5070205;28;20207;-82
2024/01/20 05:07:20;;;;;;;13.63;12.33;;;;;;;1.32;82.74;101682.38;5070080;28;20267;-82
2024/01/20 05:09:46;;;;;;;14.20;12.80;;;;;;;1.62;83.30;101658.63;5069605;28;20228;-81
2024/01/20 05:12:13;;;;;;;12.23;11.03;;;;;;;1.55;82.69;101682.38;5069124;28;20235;-82
2024/01/20 05:14:40;;;;;;;11.87;10.70;;;;;;;1.69;82.51;101678.63;5068737;28;20215;-81
2024/01/20 05:17:07;;;;;;;12.27;10.97;;;;;;;1.65;81.60;101705.06;5069723;28;20626;-82
2024/01/20 05:19:33;;;;;;;11.67;10.47;;;;;;;1.51;82.45;101706.25;5069491;28;20240;-82
2024/01/20 05:21:59;;;;;;;13.53;10.97;;;;;;;1.40;82.54;101713.53;5067400;28;20246;-80
2024/01/20 05:24:26;;;;;;;11.63;10.50;;;;;;;1.43;82.00;101721.38;5068897;28;20202;-79
2024/01/20 05:26:52;;;;;;;13.60;11.00;;;;;;;1.34;82.40;101716.75;5069089;28;20232;-80
2024/01/20 05:29:18;;;;;;;13.00;10.67;;;;;;;1.15;82.20;101717.72;5068481;28;20234;-81
2024/01/20 05:31:46;;;;;;;12.50;11.13;;;;;;;1.35;82.95;101704.78;5068322;28;20225;-81
2024/01/20 05:34:12;;;;;;;12.77;11.43;;;;;;;1.49;82.09;101708.75;5068622;28;20210;-81
2024/01/20 05:36:39;;;;;;;13.30;10.70;;;;;;;1.51;81.38;101727.69;5068717;28;20267;-81
2024/01/20 05:39:05;;;;;;;12.37;11.10;;;;;;;1.55;80.98;101739.88;5068956;28;20300;-81
2024/01/20 05:41:31;;;;;;;13.23;10.30;;;;;;;1.43;80.88;101762.56;5069103;28;20251;-81
2024/01/20 05:43:58;;;;;;;13.20;10.63;;;;;;;1.63;80.85;101762.47;5124052;22;20587;-78
2024/01/20 05:46:25;;;;;;;12.13;10.13;;;;;;;1.52;80.06;101773.19;5057915;28;20214;-78
2024/01/20 05:48:52;;;;;;;11.97;9.60;;;;;;;1.50;80.22;101790.25;5057396;28;20208;-78
2024/01/20 05:51:19;;;;;;;11.47;10.30;;;;;;;1.48;80.15;101799.63;5057966;28;20279;-78
2024/01/20 05:53:46;;;;;;;11.80;10.17;;;;;;;1.38;80.22;101806.06;5075637;28;20226;-78
2024/01/20 05:56:12;;;;;;;12.40;9.37;;;;;;;1.44;80.64;101802.00;5077754;28;20206;-78
2024/01/20 05:58:39;;;;;;;12.63;10.20;;;;;;;1.08;80.24;101821.13;5077466;28;20209;-79
2024/01/20 06:01:05;;;;;;;10.97;9.87;;;;;;;1.32;80.41;101808.41;5078121;28;20685;-79
2024/01/20 06:03:31;;;;;;;11.07;9.90;;;;;;;1.27;79.92;101821.88;5078380;28;20226;-78
2024/01/20 06:05:59;;;;;;;12.30;10.53;;;;;;;1.27;80.81;101811.59;5078378;28;20646;-78
2024/01/20 06:08:26;;;;;;;12.63;10.03;;;;;;;1.21;80.36;101819.06;5077919;28;20214;-78
2024/01/20 06:10:52;;;;;;;12.30;9.80;;;;;;;1.35;80.77;101817.97;5077026;28;20228;-78
2024/01/20 06:13:19;;;;;;;11.13;10.03;;;;;;;1.05;80.72;101813.31;5077162;28;20238;-78
2024/01/20 06:15:46;;;;;;;12.17;10.20;;;;;;;1.12;80.35;101807.59;5078287;28;20204;-79
2024/01/20 06:18:12;;;;;;;12.90;9.10;;;;;;;0.97;81.04;101819.78;5078032;28;20205;-78
2024/01/20 06:20:38;;;;;;;12.87;10.13;;;;;;;1.06;81.25;101812.47;5077141;28;20252;-78
2024/01/20 06:23:06;;;;;;;12.97;10.53;;;;;;;1.05;81.22;101810.72;5071428;28;20307;-78
2024/01/20 06:25:32;;;;;;;11.60;10.23;;;;;;;1.03;81.40;101814.94;5072943;28;20233;-78
2024/01/20 06:27:59;;;;;;;14.60;10.10;;;;;;;0.94;80.81;101817.09;5077289;28;20493;-78
2024/01/20 06:30:25;;;;;;;10.50;9.20;;;;;;;0.65;81.93;101805.56;5077037;28;20260;-78
2024/01/20 06:32:51;;;;;;;15.37;10.53;;;;;;;0.89;81.58;101793.78;5077146;28;20644;-78
2024/01/20 06:35:18;;;;;;;14.67;10.37;;;;;;;1.06;81.19;101791.91;5076874;28;20209;-78
2024/01/20 06:37:44;;;;;;;11.93;9.83;;;;;;;1.17;80.65;101807.81;5077219;28;20208;-78
2024/01/20 06:40:12;;;;;;;11.37;8.50;;;;;;;1.21;79.51;101812.25;5077347;28;20204;-77
2024/01/20 06:42:38;;;;;;;10.43;9.50;;;;;;;1.13;79.85;101835.06;5076899;28;20275;-78
2024/01/20 06:45:05;;;;;;;11.40;9.97;;;;;;;1.15;79.33;101843.72;5077198;28;20204;-78
2024/01/20 06:47:32;;;;;;;14.03;10.20;;;;;;;1.05;79.70;101858.69;5077112;28;20200;-78
2024/01/20 06:49:59;;;;;;;14.57;9.90;;;;;;;1.17;79.33;101857.53;5077785;28;20239;-78
2024/01/20 06:52:25;;;;;;;12.83;9.73;;;;;;;1.14;79.08;101870.25;5076275;28;20221;-81
2024/01/20 06:54:51;;;;;;;12.07;10.53;;;;;;;1.17;79.79;101883.25;5078017;28;20204;-79
2024/01/20 06:57:19;;;;;;;13.17;11.03;;;;;;;0.77;79.93;101894.38;5077091;28;20200;-78
2024/01/20 06:59:45;;;;;;;17.73;11.03;;;;;;;0.99;80.42;101870.47;5076725;28;20205;-80
2024/01/20 07:02:11;;;;;;;11.63;10.43;;;;;;;1.11;80.34;101880.41;5077836;28;20717;-79
2024/01/20 07:04:38;;;;;;;15.30;11.13;;;;;;;1.01;80.43;101880.81;5077957;28;20201;-79
2024/01/20 07:07:04;;;;;;;11.37;10.23;;;;;;;1.12;80.07;101889.00;5078104;28;20260;-79
2024/01/20 07:09:31;;;;;;;13.80;11.47;;;;;;;1.14;79.40;101884.81;5077094;28;20213;-79
2024/01/20 07:11:57;;;;;;;11.80;10.60;;;;;;;0.83;80.57;101877.44;5076967;28;20235;-79
2024/01/20 07:14:25;;;;;;;12.93;10.50;;;;;;;0.89;80.96;101860.63;5077762;28;20209;-79
2024/01/20 07:16:52;;;;;;;12.33;11.03;;;;;;;0.83;80.53;101854.31;5077000;28;20209;-78
2024/01/20 07:19:18;;;;;;;18.00;11.20;;;;;;;0.76;81.10;101856.63;5075926;28;20237;-78
2024/01/20 07:21:45;;;;;;;19.63;11.50;;;;;;;0.56;81.17;101852.31;5074484;28;20203;-78
2024/01/20 07:24:11;;;;;;;12.07;10.87;;;;;;;0.62;81.38;101842.28;5076391;28;20326;-79
2024/01/20 07:26:37;;;;;;;12.63;11.47;;;;;;;0.91;80.52;101835.84;5077236;28;20208;-79
2024/01/20 07:29:04;;;;;;;12.20;10.93;;;;;;;1.08;80.50;101845.97;5075180;28;20679;-78
2024/01/20 07:31:31;;;;;;;12.57;11.37;;;;;;;0.90;80.19;101864.94;5076265;28;20619;-79
2024/01/20 07:33:58;;;;;;;13.17;11.67;;;;;;;1.07;79.99;101859.63;5076277;28;20974;-79
2024/01/20 07:36:24;;;;;;;13.17;11.77;;;;;;;1.11;79.92;101869.22;5076284;28;20221;-79
2024/01/20 07:38:50;;;;;;;12.87;11.50;;;;;;;1.07;79.89;101900.75;5075873;28;20255;-79
2024/01/20 07:41:18;;;;;;;12.80;11.47;;;;;;;0.89;79.78;101890.56;5076176;28;20204;-78
2024/01/20 07:43:44;;;;;;;15.07;11.60;;;;;;;0.71;79.97;101904.34;5075885;28;20238;-78
2024/01/20 07:46:12;;;;;;;12.80;11.60;;;;;;;0.85;81.13;101884.41;5075755;28;20205;-78
2024/01/20 07:48:39;;;;;;;12.53;11.20;;;;;;;0.53;81.65;101878.72;5075528;28;20201;-78
2024/01/20 07:51:06;;;;;;;15.70;12.27;;;;;;;0.78;80.87;101866.97;5075332;28;20221;-78
2024/01/20 07:53:32;;;;;;;11.80;10.53;;;;;;;0.86;81.26;101873.31;5074020;28;20224;-79
2024/01/20 07:55:58;;;;;;;12.90;11.60;;;;;;;0.95;79.89;101883.13;5075615;28;20733;-78
2024/01/20 07:58:25;;;;;;;13.50;11.83;;;;;;;0.54;81.31;101902.72;5075500;28;20702;-79
2024/01/20 08:00:51;;;;;;;11.37;10.17;;;;;;;0.54;81.56;101885.63;5075989;28;20743;-80
2024/01/20 08:03:17;;;;;;;16.20;11.83;;;;;;;0.55;81.64;101882.22;5077577;28;20661;-79
2024/01/20 08:05:45;;;;;;;13.87;11.53;;;;;;;0.72;81.07;101880.44;5077179;28;20209;-79
2024/01/20 08:08:12;;;;;;;14.50;11.70;;;;;;;0.86;81.00;101882.72;5076772;28;20205;-79
2024/01/20 08:10:38;;;;;;;15.37;12.07;;;;;;;0.53;81.70;101898.38;5076134;28;20225;-79
2024/01/20 08:13:04;;;;;;;16.17;11.37;;;;;;;0.76;81.30;101874.59;5077033;28;20224;-79
2024/01/20 08:15:31;;;;;;;13.00;10.30;;;;;;;0.78;81.46;101882.41;5076672;28;20670;-79
2024/01/20 08:17:57;;;;;;;14.27;11.10;;;;;;;0.92;81.37;101878.72;5077427;28;20204;-79
2024/01/20 08:20:24;;;;;;;15.33;12.13;;;;;;;0.75;80.93;101893.44;5076779;28;20256;-79
2024/01/20 08:22:51;;;;;;;13.83;10.60;;;;;;;0.78;81.12;101879.81;5075777;28;20258;-78
2024/01/20 08:25:18;;;;;;;12.67;11.33;;;;;;;0.64;81.37;101884.34;5078848;28;20258;-78
2024/01/20 08:27:44;;;;;;;13.00;11.07;;;;;;;0.50;81.46;101891.44;5078598;28;20749;-78
2024/01/20 08:30:12;;;;;;;13.00;11.03;;;;;;;0.54;82.12;101893.31;5081038;28;20275;-78
2024/01/20 08:32:39;;;;;;;12.30;10.57;;;;;;;0.54;81.54;101884.75;5083960;28;20230;-78
2024/01/20 08:35:06;;;;;;;17.07;10.97;;;;;;;0.65;81.29;101887.78;5052083;28;20264;-78
2024/01/20 08:37:32;;;;;;;18.47;10.40;;;;;;;0.74;81.26;101885.63;5059340;28;20685;-79
2024/01/20 08:40:00;;;;;;;14.47;11.00;;;;;;;0.59;81.88;101889.28;5058422;28;20201;-79
2024/01/20 08:42:26;;;;;;;14.20;11.13;;;;;;;0.91;81.78;101883.78;5058897;28;20234;-79
2024/01/20 08:44:52;;;;;;;11.00;9.90;;;;;;;0.70;80.91;101905.19;5059445;28;20197;-79
2024/01/20 08:47:19;;;;;;;12.97;10.37;;;;;;;0.93;81.64;101895.94;5058333;28;20198;-79
2024/01/20 08:49:47;;;;;;;12.63;11.40;;;;;;;1.06;81.12;101911.88;5058335;28;20263;-79
2024/01/20 08:52:14;;;;;;;13.33;11.97;;;;;;;1.01;80.29;101924.50;5054297;28;20232;-78
2024/01/20 08:54:40;;;;;;;13.73;12.33;;;;;;;1.10;80.05;101935.22;5035562;28;20625;-78
2024/01/20 08:57:08;;;;;;;12.53;11.23;;;;;;;1.09;80.68;101935.13;5054902;28;20203;-78
2024/01/20 08:59:34;;;;;;;12.53;10.53;;;;;;;1.12;79.90;101945.56;5055567;28;20198;-78
2024/01/20 09:02:01;;;;;;;16.27;10.13;;;;;;;1.20;80.32;101951.94;5056636;28;20209;-78
2024/01/20 09:04:27;;;;;;;15.20;11.73;;;;;;;1.15;79.86;101956.88;5056248;28;20260;-78
2024/01/20 09:06:53;;;;;;;13.93;11.07;;;;;;;1.13;80.35;101963.66;5056127;28;20260;-78
2024/01/20 09:09:20;;;;;;;12.57;10.33;;;;;;;1.34;79.45;101955.97;5055386;28;20207;-78
2024/01/20 09:11:46;;;;;;;13.87;9.53;;;;;;;1.11;80.50;101964.38;5056048;28;20291;-78
2024/01/20 09:14:14;;;;;;;12.07;10.30;;;;;;;1.15;79.42;101972.31;5056285;28;20230;-78
2024/01/20 09:16:40;;;;;;;16.47;10.10;;;;;;;0.95;80.28;101962.81;5056099;28;20237;-78
2024/01/20 09:19:07;;;;;;;11.90;10.53;;;;;;;1.06;80.09;101971.91;5055926;28;20198;-78
2024/01/20 09:21:33;;;;;;;12.00;10.83;;;;;;;1.03;80.58;101961.50;5057722;28;20201;-79
2024/01/20 09:24:00;;;;;;;15.10;10.37;;;;;;;1.22;79.87;101952.88;5038046;28;20747;-79
2024/01/20 09:26:26;;;;;;;10.87;9.70;;;;;;;1.35;79.26;101970.59;5049072;28;20206;-78
2024/01/20 09:28:53;;;;;;;11.27;9.80;;;;;;;1.26;79.33;101989.91;5064531;28;20197;-78
2024/01/20 09:31:20;;;;;;;12.13;10.20;;;;;;;1.22;79.47;102000.88;5048075;28;20257;-78
2024/01/20 09:33:47;;;;;;;13.67;9.93;;;;;;;1.28;79.38;102011.44;5055528;28;20228;-78
2024/01/20 09:36:13;;;;;;;11.00;9.73;;;;;;;1.22;79.53;102006.88;5056498;28;20202;-78
2024/01/20 09:38:39;;;;;;;10.97;9.80;;;;;;;1.38;79.48;102011.88;5056143;28;20204;-78
2024/01/20 09:41:09;;;;;;;11.47;10.27;;;;;;;1.07;79.85;102019.94;5055583;28;20197;-78
2024/01/20 09:43:37;;;;;;;15.03;10.40;;;;;;;1.18;79.59;102002.41;5055628;28;20236;-78
2024/01/20 09:46:04;;;;;;;11.80;9.73;;;;;;;1.10;79.67;102017.50;5056415;28;20203;-78
2024/01/20 09:48:32;;;;;;;12.83;9.43;;;;;;;1.27;79.87;102010.56;5056133;28;20262;-78
2024/01/20 09:50:59;;;;;;;10.73;8.80;;;;;;;1.46;78.84;102019.06;5056243;28;20226;-79
2024/01/20 09:53:26;;;;;;;11.77;10.13;;;;;;;1.49;79.29;102026.94;5044626;28;20221;-78
2024/01/20 09:55:52;;;;;;;10.80;9.40;;;;;;;1.47;78.57;102042.31;5052450;28;20206;-79
2024/01/20 09:58:19;;;;;;;10.70;9.13;;;;;;;1.52;78.58;102042.50;5056435;28;20216;-79
2024/01/20 10:00:46;;;;;;;13.20;10.03;;;;;;;1.18;78.66;102054.72;5056840;28;20262;-78
2024/01/20 10:03:12;;;;;;;14.50;10.60;;;;;;;1.18;79.44;102048.72;5056188;28;20232;-78
2024/01/20 10:05:40;;;;;;;12.70;10.20;;;;;;;1.29;79.89;102041.47;5055967;28;20207;-78
2024/01/20 10:08:07;;;;;;;11.50;10.13;;;;;;;1.32;79.15;102033.91;5055458;28;20252;-78
2024/01/20 10:10:33;;;;;;;12.60;9.57;;;;;;;1.28;80.33;102029.44;5055255;28;20203;-79
2024/01/20 10:13:01;;;;;;;11.77;10.57;;;;;;;1.27;79.25;102023.41;5055927;28;20229;-78
2024/01/20 10:15:30;;;;;;;10.17;9.17;;;;;;;1.33;79.77;102025.38;5055034;28;20202;-78
2024/01/20 10:17:57;;;;;;;11.53;9.37;;;;;;;1.40;79.20;102029.97;5055639;28;20201;-78
2024/01/20 10:20:24;;;;;;;11.53;9.53;;;;;;;1.62;79.17;102029.22;5054494;28;20623;-78
2024/01/20 10:22:53;;;;;;;12.47;10.07;;;;;;;1.58;78.59;102046.22;5047853;28;20221;-78
2024/01/20 10:25:20;;;;;;;11.70;9.00;;;;;;;1.45;79.46;102055.91;5037947;28;20582;-79
2024/01/20 10:27:47;;;;;;;12.07;9.30;;;;;;;1.56;78.67;102060.69;5051131;28;20205;-78
2024/01/20 10:30:15;;;;;;;10.43;9.40;;;;;;;1.65;78.58;102060.25;5041798;28;20218;-79
2024/01/20 10:32:42;;;;;;;10.37;9.37;;;;;;;1.53;78.04;102065.72;5044437;28;20279;-79
2024/01/20 10:35:09;;;;;;;10.03;9.13;;;;;;;1.70;78.17;102069.03;5042037;28;20216;-79
2024/01/20 10:37:38;;;;;;;10.67;9.07;;;;;;;1.67;77.70;102081.78;5049922;28;20212;-79
2024/01/20 10:40:10;;;;;;;10.87;9.23;;;;;;;1.85;77.79;102088.56;5049300;28;20217;-79
2024/01/20 10:42:42;;;;;;;11.00;9.03;;;;;;;1.79;77.75;102090.03;5052360;28;20794;-80
2024/01/20 10:45:10;;;;;;;10.33;8.23;;;;;;;1.74;77.37;102104.38;5052327;28;20688;-79
2024/01/20 10:47:37;;;;;;;9.93;8.43;;;;;;;1.94;77.06;102100.13;5052139;28;20832;-79
2024/01/20 10:50:05;;;;;;;11.40;9.30;;;;;;;2.00;76.37;102107.22;5052613;28;20237;-79
2024/01/20 10:52:32;;;;;;;12.80;8.97;;;;;;;2.05;77.10;102123.75;5050614;28;20762;-79
2024/01/20 10:55:00;;;;;;;10.50;8.47;;;;;;;1.93;76.95;102118.09;5051734;28;20221;-78
2024/01/20 10:57:28;;;;;;;11.33;8.43;;;;;;;2.03;76.78;102109.94;5051267;28;20678;-79
2024/01/20 10:59:56;;;;;;;9.03;7.90;;;;;;;1.85;76.30;102135.78;5056414;28;20202;-79
2024/01/20 11:02:23;;;;;;;9.00;7.83;;;;;;;1.64;76.99;102139.97;5059962;28;20258;-78
2024/01/20 11:04:50;;;;;;;7.93;7.10;;;;;;;1.92;77.21;102130.09;5048197;28;20205;-75
2024/01/20 11:07:21;;;;;;;12.83;9.23;;;;;;;1.96;76.72;102142.28;5048865;28;20210;-76
2024/01/20 11:09:54;;;;;;;9.87;8.23;;;;;;;1.93;76.06;102142.13;5049226;28;20202;-76
2024/01/20 11:12:22;;;;;;;10.10;8.40;;;;;;;2.10;76.46;102155.75;5049268;28;20286;-77
2024/01/20 11:14:51;;;;;;;9.47;8.53;;;;;;;2.19;76.50;102150.13;5048991;28;20275;-77
2024/01/20 11:17:19;;;;;;;11.03;8.23;;;;;;;1.90;75.89;102154.88;5049753;28;20205;-78